sensor_id;sensor_type;location;lat;lon;timestamp;P1;durP1;ratioP1;P2;durP2;ratioP2
30466;SDS011;17258;52.560;13.046;2022-08-03T00:08:50;2.50;;;1.77;;
30466;SDS011;17258;52.560;13.046;2022-08-03T00:18:51;9.30;;;1.87;;
30466;SDS011;17258;52.560;13.046;2022-08-03T00:28:52;1.88;;;1.30;;
30466;SDS011;17258;52.560;13.046;2022-08-03T00:38:52;1.93;;;1.30;;
30466;SDS011;17258;52.560;13.046;2022-08-03T00:48:53;2.60;;;1.65;;
30466;SDS011;17258;52.560;13.046;2022-08-03T00:58:54;3.93;;;1.57;;
30466;SDS011;17258;52.560;13.046;2022-08-03T01:09:18;1.60;;;1.48;;
30466;SDS011;17258;52.560;13.046;2022-08-03T01:39:56;2.90;;;1.58;;
30466;SDS011;17258;52.560;13.046;2022-08-03T01:50:00;1.67;;;1.58;;
30466;SDS011;17258;52.560;13.046;2022-08-03T02:00:02;2.00;;;1.50;;
30466;SDS011;17258;52.560;13.046;2022-08-03T02:10:05;2.70;;;1.73;;
30466;SDS011;17258;52.560;13.046;2022-08-03T02:20:10;3.08;;;1.48;;
30466;SDS011;17258;52.560;13.046;2022-08-03T02:30:12;1.92;;;1.52;;
30466;SDS011;17258;52.560;13.046;2022-08-03T02:40:13;2.67;;;1.70;;
30466;SDS011;17258;52.560;13.046;2022-08-03T02:50:17;1.88;;;1.40;;
30466;SDS011;17258;52.560;13.046;2022-08-03T03:00:18;1.33;;;1.23;;
30466;SDS011;17258;52.560;13.046;2022-08-03T03:10:23;1.90;;;1.73;;
30466;SDS011;17258;52.560;13.046;2022-08-03T03:20:24;1.50;;;1.38;;
30466;SDS011;17258;52.560;13.046;2022-08-03T03:30:26;2.08;;;1.52;;
30466;SDS011;17258;52.560;13.046;2022-08-03T03:40:28;2.25;;;1.95;;
30466;SDS011;17258;52.560;13.046;2022-08-03T03:50:29;2.03;;;1.60;;
30466;SDS011;17258;52.560;13.046;2022-08-03T04:00:32;1.85;;;1.67;;
30466;SDS011;17258;52.560;13.046;2022-08-03T04:10:33;2.15;;;1.83;;
30466;SDS011;17258;52.560;13.046;2022-08-03T04:20:58;4.00;;;1.70;;
30466;SDS011;17258;52.560;13.046;2022-08-03T04:31:03;2.35;;;1.80;;
30466;SDS011;17258;52.560;13.046;2022-08-03T04:41:06;1.88;;;1.73;;
30466;SDS011;17258;52.560;13.046;2022-08-03T04:51:08;2.30;;;1.63;;
30466;SDS011;17258;52.560;13.046;2022-08-03T05:01:09;2.40;;;1.92;;
30466;SDS011;17258;52.560;13.046;2022-08-03T05:11:10;2.38;;;1.58;;
30466;SDS011;17258;52.560;13.046;2022-08-03T05:21:11;1.87;;;1.30;;
30466;SDS011;17258;52.560;13.046;2022-08-03T05:31:13;1.70;;;1.50;;
30466;SDS011;17258;52.560;13.046;2022-08-03T05:41:14;1.20;;;1.10;;
30466;SDS011;17258;52.560;13.046;2022-08-03T05:51:14;3.30;;;2.37;;
30466;SDS011;17258;52.560;13.046;2022-08-03T06:01:16;4.72;;;3.13;;
30466;SDS011;17258;52.560;13.046;2022-08-03T06:11:17;3.17;;;2.97;;
30466;SDS011;17258;52.560;13.046;2022-08-03T06:21:18;2.90;;;2.80;;
30466;SDS011;17258;52.560;13.046;2022-08-03T06:31:19;2.90;;;2.63;;
30466;SDS011;17258;52.560;13.046;2022-08-03T06:41:27;1.45;;;1.45;;
30466;SDS011;17258;52.560;13.046;2022-08-03T06:51:28;1.95;;;1.85;;
30466;SDS011;17258;52.560;13.046;2022-08-03T07:01:28;2.07;;;1.90;;
30466;SDS011;17258;52.560;13.046;2022-08-03T07:11:29;2.13;;;2.03;;
30466;SDS011;17258;52.560;13.046;2022-08-03T07:21:30;2.10;;;2.00;;
30466;SDS011;17258;52.560;13.046;2022-08-03T07:31:30;3.40;;;3.17;;
30466;SDS011;17258;52.560;13.046;2022-08-03T07:41:31;4.43;;;3.90;;
30466;SDS011;17258;52.560;13.046;2022-08-03T07:51:32;5.50;;;5.20;;
30466;SDS011;17258;52.560;13.046;2022-08-03T08:01:33;5.20;;;4.90;;
30466;SDS011;17258;52.560;13.046;2022-08-03T08:11:36;1.77;;;1.42;;
30466;SDS011;17258;52.560;13.046;2022-08-03T08:21:37;1.10;;;0.77;;
30466;SDS011;17258;52.560;13.046;2022-08-03T08:31:38;1.53;;;1.30;;
30466;SDS011;17258;52.560;13.046;2022-08-03T08:41:38;2.22;;;1.00;;
30466;SDS011;17258;52.560;13.046;2022-08-03T08:51:39;0.70;;;0.70;;
30466;SDS011;17258;52.560;13.046;2022-08-03T09:01:42;0.75;;;0.75;;
30466;SDS011;17258;52.560;13.046;2022-08-03T09:11:43;1.30;;;1.20;;
30466;SDS011;17258;52.560;13.046;2022-08-03T09:21:44;0.65;;;0.65;;
30466;SDS011;17258;52.560;13.046;2022-08-03T09:31:45;2.07;;;1.07;;
30466;SDS011;17258;52.560;13.046;2022-08-03T09:41:46;1.73;;;1.15;;
30466;SDS011;17258;52.560;13.046;2022-08-03T09:52:15;1.50;;;1.05;;
30466;SDS011;17258;52.560;13.046;2022-08-03T10:02:25;1.20;;;1.10;;
30466;SDS011;17258;52.560;13.046;2022-08-03T10:12:27;1.20;;;0.98;;
30466;SDS011;17258;52.560;13.046;2022-08-03T10:22:29;1.17;;;1.08;;
30466;SDS011;17258;52.560;13.046;2022-08-03T10:32:35;1.05;;;1.05;;
30466;SDS011;17258;52.560;13.046;2022-08-03T10:43:11;1.02;;;0.93;;
30466;SDS011;17258;52.560;13.046;2022-08-03T10:53:32;1.10;;;1.10;;
30466;SDS011;17258;52.560;13.046;2022-08-03T11:24:10;0.80;;;0.80;;
30466;SDS011;17258;52.560;13.046;2022-08-03T11:34:49;4.27;;;1.63;;
30466;SDS011;17258;52.560;13.046;2022-08-03T11:45:11;1.52;;;1.33;;
30466;SDS011;17258;52.560;13.046;2022-08-03T11:55:12;1.10;;;1.10;;
30466;SDS011;17258;52.560;13.046;2022-08-03T12:05:17;1.95;;;1.13;;
30466;SDS011;17258;52.560;13.046;2022-08-03T12:15:23;1.93;;;1.10;;
30466;SDS011;17258;52.560;13.046;2022-08-03T12:25:25;1.08;;;1.00;;
30466;SDS011;17258;52.560;13.046;2022-08-03T12:35:26;1.40;;;1.30;;
30466;SDS011;17258;52.560;13.046;2022-08-03T12:45:28;1.13;;;1.05;;
30466;SDS011;17258;52.560;13.046;2022-08-03T12:55:31;2.33;;;1.08;;
30466;SDS011;17258;52.560;13.046;2022-08-03T13:05:43;1.42;;;1.33;;
30466;SDS011;17258;52.560;13.046;2022-08-03T13:15:44;1.27;;;1.17;;
30466;SDS011;17258;52.560;13.046;2022-08-03T13:25:45;1.00;;;1.00;;
30466;SDS011;17258;52.560;13.046;2022-08-03T13:35:45;1.13;;;0.90;;
30466;SDS011;17258;52.560;13.046;2022-08-03T13:45:46;1.30;;;1.20;;
30466;SDS011;17258;52.560;13.046;2022-08-03T13:55:47;0.90;;;0.90;;
30466;SDS011;17258;52.560;13.046;2022-08-03T14:05:47;2.63;;;1.40;;
30466;SDS011;17258;52.560;13.046;2022-08-03T16:46:26;2.88;;;0.90;;
30466;SDS011;17258;52.560;13.046;2022-08-03T16:56:26;0.80;;;0.80;;
30466;SDS011;17258;52.560;13.046;2022-08-03T17:06:27;1.73;;;0.70;;
30466;SDS011;17258;52.560;13.046;2022-08-03T17:16:28;0.90;;;0.90;;
30466;SDS011;17258;52.560;13.046;2022-08-03T17:26:29;0.73;;;0.73;;
30466;SDS011;17258;52.560;13.046;2022-08-03T17:36:33;1.53;;;1.03;;
30466;SDS011;17258;52.560;13.046;2022-08-03T17:46:34;0.73;;;0.73;;
30466;SDS011;17258;52.560;13.046;2022-08-03T17:56:38;0.80;;;0.80;;
30466;SDS011;17258;52.560;13.046;2022-08-03T18:06:56;1.23;;;1.10;;
30466;SDS011;17258;52.560;13.046;2022-08-03T18:17:05;0.90;;;0.90;;
30466;SDS011;17258;52.560;13.046;2022-08-03T18:27:07;1.00;;;1.00;;
30466;SDS011;17258;52.560;13.046;2022-08-03T18:37:09;1.80;;;1.17;;
30466;SDS011;17258;52.560;13.046;2022-08-03T18:57:36;1.52;;;1.42;;
30466;SDS011;17258;52.560;13.046;2022-08-03T19:08:02;1.33;;;1.17;;
30466;SDS011;17258;52.560;13.046;2022-08-03T19:18:15;2.00;;;1.90;;
30466;SDS011;17258;52.560;13.046;2022-08-03T19:28:16;2.63;;;1.85;;
30466;SDS011;17258;52.560;13.046;2022-08-03T19:38:17;2.17;;;1.83;;
30466;SDS011;17258;52.560;13.046;2022-08-03T19:48:19;3.38;;;2.97;;
30466;SDS011;17258;52.560;13.046;2022-08-03T19:58:25;4.00;;;3.27;;
30466;SDS011;17258;52.560;13.046;2022-08-03T20:08:31;4.43;;;3.67;;
30466;SDS011;17258;52.560;13.046;2022-08-03T20:18:32;4.53;;;3.78;;
30466;SDS011;17258;52.560;13.046;2022-08-03T20:28:37;7.50;;;4.20;;
30466;SDS011;17258;52.560;13.046;2022-08-03T20:38:48;6.53;;;3.10;;
30466;SDS011;17258;52.560;13.046;2022-08-03T20:48:49;4.82;;;3.30;;
30466;SDS011;17258;52.560;13.046;2022-08-03T20:58:50;3.53;;;3.20;;
30466;SDS011;17258;52.560;13.046;2022-08-03T21:09:01;14.75;;;2.90;;
30466;SDS011;17258;52.560;13.046;2022-08-03T21:19:05;3.55;;;2.70;;
30466;SDS011;17258;52.560;13.046;2022-08-03T21:29:06;5.68;;;2.80;;
30466;SDS011;17258;52.560;13.046;2022-08-03T21:39:10;4.57;;;2.70;;
30466;SDS011;17258;52.560;13.046;2022-08-03T21:49:11;3.88;;;2.70;;
30466;SDS011;17258;52.560;13.046;2022-08-03T21:59:15;2.97;;;2.25;;
30466;SDS011;17258;52.560;13.046;2022-08-03T22:09:18;3.00;;;2.70;;
30466;SDS011;17258;52.560;13.046;2022-08-03T22:19:19;2.53;;;2.37;;
30466;SDS011;17258;52.560;13.046;2022-08-03T22:29:20;2.50;;;2.30;;
30466;SDS011;17258;52.560;13.046;2022-08-03T22:39:21;2.00;;;1.90;;
30466;SDS011;17258;52.560;13.046;2022-08-03T22:49:22;2.58;;;2.38;;
30466;SDS011;17258;52.560;13.046;2022-08-03T22:59:26;4.00;;;2.17;;
30466;SDS011;17258;52.560;13.046;2022-08-03T23:09:26;2.40;;;2.15;;
30466;SDS011;17258;52.560;13.046;2022-08-03T23:19:30;2.33;;;2.17;;
30466;SDS011;17258;52.560;13.046;2022-08-03T23:29:34;2.40;;;2.20;;
30466;SDS011;17258;52.560;13.046;2022-08-03T23:39:37;2.85;;;2.50;;
30466;SDS011;17258;52.560;13.046;2022-08-03T23:49:39;4.60;;;2.25;;
30466;SDS011;17258;52.560;13.046;2022-08-03T23:59:52;3.20;;;2.00;;
